createdAt,value
2022-08-03T00:01:51.125Z,5.13
2022-08-03T00:03:54.230Z,5.70
2022-08-03T00:06:04.080Z,5.90
2022-08-03T00:08:09.283Z,5.63
2022-08-03T00:10:12.552Z,5.63
2022-08-03T00:12:15.858Z,5.53
2022-08-03T00:14:19.084Z,5.47
2022-08-03T00:16:22.227Z,5.40
2022-08-03T00:18:26.473Z,5.70
2022-08-03T00:20:29.554Z,5.50
2022-08-03T00:22:32.974Z,5.23
2022-08-03T00:24:37.366Z,5.47
2022-08-03T00:26:40.373Z,5.40
2022-08-03T00:28:43.528Z,6.00
2022-08-03T00:30:46.771Z,5.50
2022-08-03T00:32:50.679Z,5.87
2022-08-03T00:34:57.906Z,5.50
2022-08-03T00:37:02.298Z,5.90
2022-08-03T00:39:05.375Z,5.33
2022-08-03T00:41:10.097Z,5.10
2022-08-03T00:43:13.205Z,5.40
2022-08-03T00:45:16.337Z,5.70
2022-08-03T00:47:19.419Z,5.67
2022-08-03T00:49:22.613Z,5.50
2022-08-03T00:51:26.809Z,6.00
2022-08-03T00:53:29.950Z,5.40
2022-08-03T00:55:33.318Z,5.30
2022-08-03T00:57:38.288Z,5.57
2022-08-03T00:59:41.309Z,5.10
2022-08-03T01:01:44.508Z,5.60
2022-08-03T01:03:47.597Z,5.30
2022-08-03T01:05:54.448Z,5.23
2022-08-03T01:08:04.187Z,6.07
2022-08-03T01:10:13.740Z,5.87
2022-08-03T01:12:23.896Z,5.80
2022-08-03T01:14:34.137Z,5.47
2022-08-03T01:16:41.753Z,5.90
2022-08-03T01:18:48.203Z,5.30
2022-08-03T01:20:54.673Z,6.10
2022-08-03T01:23:34.861Z,5.10
2022-08-03T01:25:46.996Z,6.30
2022-08-03T01:28:06.004Z,6.40
2022-08-03T01:30:11.971Z,5.53
2022-08-03T01:32:59.042Z,5.60
2022-08-03T01:34:46.715Z,5.70
2022-08-03T01:36:52.701Z,5.40
2022-08-03T01:39:00.511Z,5.63
2022-08-03T01:41:06.189Z,6.17
2022-08-03T01:43:10.795Z,6.17
2022-08-03T01:45:17.897Z,5.70
2022-08-03T01:47:21.640Z,5.30
2022-08-03T01:49:25.863Z,6.50
2022-08-03T01:51:58.470Z,5.53
2022-08-03T01:53:55.188Z,5.90
2022-08-03T01:55:58.679Z,5.80
2022-08-03T01:58:06.821Z,5.87
2022-08-03T02:00:11.396Z,5.87
2022-08-03T02:02:33.295Z,5.77
2022-08-03T02:04:39.351Z,5.70
2022-08-03T02:06:59.779Z,6.00
2022-08-03T02:09:04.631Z,6.30
2022-08-03T02:11:08.060Z,5.03
2022-08-03T02:13:11.897Z,5.70
2022-08-03T02:15:16.844Z,5.90
2022-08-03T02:17:38.938Z,5.80
2022-08-03T02:19:43.899Z,6.00
2022-08-03T02:21:56.694Z,6.07
2022-08-03T02:24:05.743Z,5.70
2022-08-03T02:26:13.293Z,5.83
2022-08-03T02:28:18.508Z,5.60
2022-08-03T02:30:22.348Z,5.90
2022-08-03T02:32:31.617Z,6.40
2022-08-03T02:34:36.319Z,5.93
2022-08-03T02:36:41.043Z,5.63
2022-08-03T02:38:45.443Z,6.17
2022-08-03T02:40:50.444Z,5.60
2022-08-03T02:42:57.372Z,5.57
2022-08-03T02:45:03.466Z,6.30
2022-08-03T02:47:09.418Z,5.60
2022-08-03T02:49:41.019Z,6.03
2022-08-03T02:51:40.255Z,5.37
2022-08-03T02:53:43.509Z,5.90
2022-08-03T02:55:47.964Z,5.53
2022-08-03T02:57:51.399Z,5.80
2022-08-03T02:59:57.691Z,5.80
2022-08-03T03:02:01.675Z,6.10
2022-08-03T03:04:05.143Z,7.00
2022-08-03T03:06:14.117Z,6.50
2022-08-03T03:08:20.773Z,6.27
2022-08-03T03:10:29.089Z,5.93
2022-08-03T03:12:32.900Z,6.07
2022-08-03T03:14:36.082Z,6.47
2022-08-03T03:16:39.616Z,6.07
2022-08-03T03:18:44.393Z,5.77
2022-08-03T03:20:47.796Z,5.57
2022-08-03T03:22:52.892Z,6.00
2022-08-03T03:24:56.477Z,6.00
2022-08-03T03:27:01.770Z,5.80
2022-08-03T03:29:05.491Z,5.83
2022-08-03T03:31:09.266Z,5.60
2022-08-03T03:33:12.651Z,6.70
2022-08-03T03:35:16.691Z,6.70
2022-08-03T03:37:19.743Z,5.90
2022-08-03T03:39:24.238Z,5.90
2022-08-03T03:41:27.762Z,5.80
2022-08-03T03:43:36.998Z,5.83
2022-08-03T03:45:42.124Z,6.17
2022-08-03T03:47:45.242Z,6.40
2022-08-03T03:49:48.371Z,5.47
2022-08-03T03:51:54.019Z,6.17
2022-08-03T03:53:58.294Z,6.27
2022-08-03T03:56:03.256Z,5.63
2022-08-03T03:58:06.877Z,6.70
2022-08-03T04:00:11.269Z,6.37
2022-08-03T04:02:14.617Z,5.80
2022-08-03T04:04:35.284Z,6.27
2022-08-03T04:06:55.708Z,6.47
2022-08-03T04:09:16.445Z,6.07
2022-08-03T04:11:29.073Z,6.47
2022-08-03T04:13:35.658Z,6.60
2022-08-03T04:15:39.561Z,6.17
2022-08-03T04:17:43.065Z,6.30
2022-08-03T04:19:48.592Z,6.10
2022-08-03T04:21:57.304Z,6.23
2022-08-03T04:24:03.235Z,6.43
2022-08-03T04:26:09.554Z,6.73
2022-08-03T04:28:30.407Z,6.60
2022-08-03T04:30:37.527Z,6.73
2022-08-03T04:32:45.830Z,6.47
2022-08-03T04:34:49.172Z,6.93
2022-08-03T04:36:54.899Z,7.10
2022-08-03T04:39:05.019Z,6.63
2022-08-03T04:41:08.805Z,6.67
2022-08-03T04:43:14.767Z,7.57
2022-08-03T04:45:18.964Z,6.40
2022-08-03T04:47:22.234Z,7.00
2022-08-03T04:49:25.651Z,7.30
2022-08-03T04:51:29.140Z,6.27
2022-08-03T04:53:34.742Z,7.30
2022-08-03T04:55:38.012Z,7.93
2022-08-03T04:57:41.092Z,6.90
2022-08-03T04:59:45.628Z,7.00
2022-08-03T05:01:49.254Z,7.50
2022-08-03T05:03:52.529Z,7.30
2022-08-03T05:06:01.838Z,7.43
2022-08-03T05:08:14.177Z,7.20
2022-08-03T05:10:17.862Z,7.37
2022-08-03T05:12:21.009Z,7.10
2022-08-03T05:14:28.084Z,7.33
2022-08-03T05:16:34.571Z,6.93
2022-08-03T05:18:37.757Z,7.53
2022-08-03T05:20:40.956Z,6.80
2022-08-03T05:22:44.153Z,7.27
2022-08-03T05:24:47.273Z,7.13
2022-08-03T05:26:50.434Z,7.13
2022-08-03T05:28:53.631Z,7.47
2022-08-03T05:30:56.677Z,7.10
2022-08-03T05:33:01.215Z,7.60
2022-08-03T05:35:56.830Z,7.70
2022-08-03T05:37:27.799Z,7.70
2022-08-03T05:39:30.922Z,7.37
2022-08-03T05:41:36.920Z,7.43
2022-08-03T05:43:40.605Z,7.60
2022-08-03T05:45:44.378Z,6.93
2022-08-03T05:47:47.980Z,6.83
2022-08-03T05:49:52.496Z,6.90
2022-08-03T05:52:08.896Z,6.63
2022-08-03T05:54:18.735Z,6.13
2022-08-03T05:56:24.274Z,6.40
2022-08-03T05:58:29.994Z,6.50
2022-08-03T06:00:33.240Z,6.30
2022-08-03T06:02:36.665Z,6.47
2022-08-03T06:04:39.773Z,6.10
2022-08-03T06:06:44.248Z,6.67
2022-08-03T06:08:48.867Z,6.60
2022-08-03T06:10:52.056Z,6.17
2022-08-03T06:12:55.319Z,6.10
2022-08-03T06:14:58.493Z,6.07
2022-08-03T06:17:01.664Z,6.30
2022-08-03T06:19:04.782Z,6.27
2022-08-03T06:21:14.333Z,5.33
2022-08-03T06:23:19.647Z,5.23
2022-08-03T06:25:23.126Z,5.17
2022-08-03T06:27:36.349Z,5.47
2022-08-03T06:29:40.319Z,5.23
2022-08-03T06:31:43.431Z,5.97
2022-08-03T06:34:30.229Z,5.20
2022-08-03T06:36:10.358Z,6.00
2022-08-03T06:38:15.279Z,5.60
2022-08-03T06:40:28.480Z,5.43
2022-08-03T06:42:31.567Z,5.43
2022-08-03T06:44:38.747Z,5.50
2022-08-03T06:46:42.336Z,5.57
2022-08-03T06:48:45.497Z,5.00
2022-08-03T06:50:48.601Z,5.90
2022-08-03T06:52:51.566Z,5.23
2022-08-03T06:54:54.731Z,5.43
2022-08-03T06:56:59.479Z,5.63
2022-08-03T06:59:02.774Z,5.47
2022-08-03T07:01:06.009Z,5.17
2022-08-03T07:03:09.152Z,5.47
2022-08-03T07:05:13.345Z,4.97
2022-08-03T07:07:17.357Z,4.90
2022-08-03T07:09:20.797Z,4.97
2022-08-03T07:11:23.871Z,4.90
2022-08-03T07:13:28.943Z,5.10
2022-08-03T07:15:54.463Z,4.97
2022-08-03T07:17:55.185Z,5.47
2022-08-03T07:19:58.648Z,4.40
2022-08-03T07:22:04.475Z,5.47
2022-08-03T07:24:08.022Z,3.87
2022-08-03T07:26:11.637Z,4.70
2022-08-03T07:28:14.728Z,4.20
2022-08-03T07:30:19.698Z,5.00
2022-08-03T07:32:23.038Z,4.43
2022-08-03T07:34:26.174Z,4.57
2022-08-03T07:36:29.341Z,4.40
2022-08-03T07:38:32.489Z,4.23
2022-08-03T07:40:35.819Z,4.30
2022-08-03T07:42:38.905Z,4.40
2022-08-03T07:44:42.123Z,4.60
2022-08-03T07:46:46.632Z,4.47
2022-08-03T07:48:49.783Z,4.60
2022-08-03T07:50:52.931Z,4.33
2022-08-03T07:52:57.894Z,4.20
2022-08-03T07:55:00.983Z,3.77
2022-08-03T07:57:04.101Z,4.17
2022-08-03T07:59:07.185Z,4.03
2022-08-03T08:01:10.376Z,3.50
2022-08-03T08:03:19.757Z,3.10
2022-08-03T08:05:22.993Z,3.20
2022-08-03T08:07:26.356Z,2.90
2022-08-03T08:09:29.613Z,2.70
2022-08-03T08:11:34.839Z,2.70
2022-08-03T08:13:41.323Z,3.20
2022-08-03T08:15:44.617Z,2.67
2022-08-03T08:17:53.537Z,2.57
2022-08-03T08:19:58.291Z,2.93
2022-08-03T08:22:03.094Z,2.50
2022-08-03T08:24:13.361Z,2.50
2022-08-03T08:26:22.879Z,5.83
2022-08-03T08:28:32.191Z,2.30
2022-08-03T08:30:36.538Z,2.37
2022-08-03T08:32:39.667Z,2.40
2022-08-03T08:34:43.043Z,3.07
2022-08-03T08:36:47.749Z,2.67
2022-08-03T08:38:51.322Z,2.00
2022-08-03T08:40:56.891Z,2.27
2022-08-03T08:43:00.192Z,3.77
2022-08-03T08:45:05.186Z,2.40
2022-08-03T08:47:09.591Z,2.60
2022-08-03T08:49:13.769Z,2.80
2022-08-03T08:51:18.238Z,2.20
2022-08-03T08:53:27.161Z,2.37
2022-08-03T08:56:00.146Z,2.50
2022-08-03T08:57:59.186Z,2.23
2022-08-03T09:00:03.287Z,2.30
2022-08-03T09:02:06.621Z,2.40
2022-08-03T09:04:09.909Z,2.33
2022-08-03T09:06:13.083Z,2.53
2022-08-03T09:08:16.165Z,2.40
2022-08-03T09:10:21.994Z,2.43
2022-08-03T09:12:42.420Z,3.40
2022-08-03T09:15:07.243Z,2.60
2022-08-03T09:17:10.060Z,2.10
2022-08-03T09:19:20.170Z,2.30
2022-08-03T09:21:33.679Z,2.20
2022-08-03T09:24:01.515Z,2.70
2022-08-03T09:26:09.129Z,2.90
2022-08-03T09:28:32.439Z,2.50
2022-08-03T09:30:40.389Z,2.30
2022-08-03T09:32:44.952Z,2.20
2022-08-03T09:34:49.357Z,2.60
2022-08-03T09:36:54.068Z,2.60
2022-08-03T09:39:04.509Z,2.70
2022-08-03T09:41:19.140Z,2.53
2022-08-03T09:43:22.607Z,2.40
2022-08-03T09:45:30.043Z,2.80
2022-08-03T09:47:36.256Z,2.53
2022-08-03T09:49:41.482Z,2.77
2022-08-03T09:52:37.929Z,3.00
2022-08-03T09:54:16.345Z,2.70
2022-08-03T09:56:34.219Z,2.63
2022-08-03T09:58:46.971Z,2.90
2022-08-03T10:00:58.842Z,2.77
2022-08-03T10:03:05.787Z,2.60
2022-08-03T10:05:10.717Z,2.83
2022-08-03T10:07:22.224Z,2.80
2022-08-03T10:09:25.364Z,2.90
2022-08-03T10:11:35.222Z,2.97
2022-08-03T10:13:43.841Z,3.50
2022-08-03T10:16:22.944Z,4.73
2022-08-03T10:18:10.504Z,3.17
2022-08-03T10:20:13.646Z,2.70
2022-08-03T10:22:18.259Z,2.60
2022-08-03T10:24:26.022Z,2.77
2022-08-03T10:26:34.912Z,2.90
2022-08-03T10:28:45.348Z,2.93
2022-08-03T10:30:51.093Z,3.00
2022-08-03T10:32:57.502Z,2.53
2022-08-03T10:35:20.165Z,2.97
2022-08-03T10:37:26.120Z,2.73
2022-08-03T10:39:31.036Z,2.60
2022-08-03T10:41:39.631Z,3.00
2022-08-03T10:43:49.041Z,2.93
2022-08-03T10:45:52.452Z,2.93
2022-08-03T10:47:57.143Z,2.57
2022-08-03T10:50:00.915Z,2.50
2022-08-03T10:52:11.375Z,2.70
2022-08-03T10:55:03.260Z,2.60
2022-08-03T10:57:25.659Z,2.60
2022-08-03T10:59:59.445Z,3.30
2022-08-03T11:02:02.501Z,2.80
2022-08-03T11:04:26.713Z,2.60
2022-08-03T11:06:37.231Z,2.70
2022-08-03T11:08:40.839Z,2.90
2022-08-03T11:10:44.017Z,2.80
2022-08-03T11:12:48.616Z,2.60
2022-08-03T11:14:51.838Z,2.70
2022-08-03T11:17:14.536Z,2.50
2022-08-03T11:19:22.364Z,3.00
2022-08-03T11:21:58.856Z,2.70
2022-08-03T11:24:03.443Z,2.80
2022-08-03T11:26:17.466Z,2.50
2022-08-03T11:28:28.856Z,2.37
2022-08-03T11:30:32.164Z,2.90
2022-08-03T11:32:58.755Z,2.93
2022-08-03T11:35:09.220Z,2.83
2022-08-03T11:37:27.278Z,2.60
2022-08-03T11:39:40.306Z,2.60
2022-08-03T11:41:45.576Z,2.93
2022-08-03T11:43:50.101Z,2.50
2022-08-03T11:45:58.912Z,2.90
2022-08-03T11:48:12.167Z,2.73
2022-08-03T11:50:17.287Z,3.03
2022-08-03T11:52:26.727Z,2.90
2022-08-03T11:54:31.822Z,2.63
2022-08-03T11:56:45.644Z,2.60
2022-08-03T11:59:09.311Z,2.30
2022-08-03T12:01:21.191Z,2.53
2022-08-03T12:03:26.107Z,2.40
2022-08-03T12:05:52.242Z,2.30
2022-08-03T12:08:04.122Z,2.40
2022-08-03T12:10:09.981Z,2.30
2022-08-03T12:12:17.134Z,2.30
2022-08-03T12:14:50.728Z,2.30
2022-08-03T12:16:48.344Z,2.63
2022-08-03T12:18:56.853Z,2.60
2022-08-03T12:21:06.738Z,3.87
2022-08-03T12:23:10.780Z,3.40
2022-08-03T12:25:38.796Z,2.70
2022-08-03T12:27:43.170Z,2.20
2022-08-03T12:29:58.571Z,2.40
2022-08-03T12:32:02.338Z,2.37
2022-08-03T12:34:07.119Z,2.53
2022-08-03T12:36:11.909Z,2.10
2022-08-03T12:38:15.169Z,2.27
2022-08-03T12:40:28.371Z,2.50
2022-08-03T12:42:31.746Z,2.30
2022-08-03T12:44:36.583Z,2.47
2022-08-03T12:46:47.739Z,2.40
2022-08-03T12:49:13.473Z,2.23
2022-08-03T12:51:16.669Z,2.60
2022-08-03T12:53:30.179Z,2.07
2022-08-03T12:55:57.708Z,2.50
2022-08-03T12:57:59.493Z,2.07
2022-08-03T13:00:21.618Z,2.33
2022-08-03T13:02:34.452Z,3.03
2022-08-03T13:04:38.095Z,3.70
2022-08-03T13:06:41.170Z,2.67
2022-08-03T13:08:46.006Z,2.70
2022-08-03T13:10:49.586Z,2.20
2022-08-03T13:12:53.259Z,2.23
2022-08-03T13:14:58.039Z,2.67
2022-08-03T13:17:01.191Z,2.60
2022-08-03T13:19:06.353Z,2.83
2022-08-03T13:21:19.141Z,2.57
2022-08-03T13:23:22.881Z,2.60
2022-08-03T13:25:26.023Z,2.27
2022-08-03T13:28:03.828Z,2.60
2022-08-03T13:29:53.965Z,2.70
2022-08-03T13:31:57.266Z,2.50
2022-08-03T13:34:00.700Z,2.47
2022-08-03T13:36:05.331Z,2.30
2022-08-03T13:38:08.498Z,2.47
2022-08-03T13:40:12.582Z,3.27
2022-08-03T13:42:17.867Z,2.43
2022-08-03T13:44:29.795Z,2.83
2022-08-03T13:46:33.243Z,2.50
2022-08-03T13:48:37.617Z,2.63
2022-08-03T13:50:43.119Z,2.70
2022-08-03T13:52:48.157Z,2.37
2022-08-03T13:54:51.505Z,2.57
2022-08-03T13:56:58.968Z,2.57
2022-08-03T13:59:06.183Z,2.40
2022-08-03T14:01:09.796Z,2.47
2022-08-03T14:03:14.487Z,2.50
2022-08-03T14:05:18.221Z,2.20
2022-08-03T14:07:21.672Z,2.30
2022-08-03T14:09:29.241Z,2.37
2022-08-03T14:12:07.931Z,2.57
2022-08-03T14:13:55.787Z,2.50
2022-08-03T14:15:58.988Z,2.50
2022-08-03T14:18:02.369Z,2.97
2022-08-03T14:20:33.846Z,2.60
2022-08-03T14:22:30.054Z,2.80
2022-08-03T14:24:34.535Z,2.70
2022-08-03T14:26:37.867Z,2.77
2022-08-03T14:28:41.140Z,2.43
2022-08-03T14:30:44.298Z,2.57
2022-08-03T14:32:47.407Z,2.80
2022-08-03T14:34:50.483Z,2.60
2022-08-03T14:36:53.784Z,2.40
2022-08-03T14:39:01.052Z,2.70
2022-08-03T14:41:06.061Z,2.90
2022-08-03T14:43:16.550Z,2.50
2022-08-03T14:45:20.370Z,2.77
2022-08-03T14:47:23.776Z,2.80
2022-08-03T14:50:34.124Z,2.80
2022-08-03T14:51:51.433Z,2.53
2022-08-03T14:53:56.507Z,2.50
2022-08-03T14:55:59.659Z,2.70
2022-08-03T14:58:05.775Z,2.40
2022-08-03T15:00:23.319Z,2.40
2022-08-03T15:02:27.847Z,2.97
2022-08-03T15:04:31.376Z,2.40
2022-08-03T15:06:34.448Z,2.40
2022-08-03T15:08:37.544Z,2.83
2022-08-03T15:10:44.233Z,2.70
2022-08-03T15:12:47.804Z,2.57
2022-08-03T15:14:52.531Z,2.60
2022-08-03T15:16:55.592Z,2.80
2022-08-03T15:18:58.701Z,2.93
2022-08-03T15:21:02.310Z,2.67
2022-08-03T15:23:05.638Z,2.30
2022-08-03T15:26:03.612Z,2.43
2022-08-03T15:27:32.309Z,2.80
2022-08-03T15:30:05.653Z,5.33
2022-08-03T15:32:00.096Z,5.00
2022-08-03T15:34:03.195Z,4.57
2022-08-03T15:36:06.657Z,4.20
2022-08-03T15:38:09.898Z,2.70
2022-08-03T15:40:13.914Z,2.57
2022-08-03T15:42:17.073Z,2.73
2022-08-03T15:44:21.011Z,2.43
2022-08-03T15:46:29.530Z,2.87
2022-08-03T15:48:34.919Z,2.70
2022-08-03T15:50:37.982Z,2.83
2022-08-03T15:52:40.996Z,2.53
2022-08-03T15:54:44.083Z,2.60
2022-08-03T15:56:47.198Z,2.33
2022-08-03T15:59:04.117Z,3.10
2022-08-03T16:01:19.171Z,3.10
2022-08-03T16:03:22.735Z,2.43
2022-08-03T16:05:27.437Z,2.30
2022-08-03T16:08:03.235Z,2.27
2022-08-03T16:10:08.669Z,2.60
2022-08-03T16:12:16.350Z,2.50
2022-08-03T16:14:34.499Z,2.70
2022-08-03T16:16:43.488Z,2.40
2022-08-03T16:18:46.683Z,2.40
2022-08-03T16:20:51.170Z,2.70
2022-08-03T16:22:56.430Z,2.70
2022-08-03T16:24:59.784Z,2.90
2022-08-03T16:27:03.075Z,2.43
2022-08-03T16:29:22.425Z,2.57
2022-08-03T16:31:28.879Z,2.47
2022-08-03T16:33:32.418Z,2.40
2022-08-03T16:35:35.556Z,7.80
2022-08-03T16:37:40.434Z,6.07
2022-08-03T16:39:55.501Z,4.33
2022-08-03T16:42:01.042Z,2.13
2022-08-03T16:44:09.564Z,2.37
2022-08-03T16:46:13.084Z,2.40
2022-08-03T16:48:16.136Z,2.30
2022-08-03T16:50:20.005Z,2.20
2022-08-03T16:52:23.448Z,2.50
2022-08-03T16:54:28.125Z,2.20
2022-08-03T16:56:32.607Z,2.37
2022-08-03T16:58:41.906Z,2.10
2022-08-03T17:00:46.480Z,2.40
2022-08-03T17:02:52.900Z,2.50
2022-08-03T17:04:58.039Z,2.33
2022-08-03T17:07:04.590Z,2.13
2022-08-03T17:09:10.193Z,2.03
2022-08-03T17:11:15.185Z,2.47
2022-08-03T17:13:21.707Z,2.40
2022-08-03T17:15:57.262Z,2.40
2022-08-03T17:17:53.578Z,2.40
2022-08-03T17:19:59.595Z,2.00
2022-08-03T17:22:05.653Z,2.50
2022-08-03T17:24:12.515Z,2.47
2022-08-03T17:26:21.855Z,2.20
2022-08-03T17:28:48.358Z,2.23
2022-08-03T17:31:23.565Z,2.47
2022-08-03T17:33:35.416Z,2.30
2022-08-03T17:35:39.006Z,2.27
2022-08-03T17:37:57.677Z,2.23
2022-08-03T17:40:03.807Z,2.40
2022-08-03T17:42:29.277Z,2.27
2022-08-03T17:44:39.941Z,2.83
2022-08-03T17:46:51.395Z,2.20
2022-08-03T17:48:55.080Z,2.30
2022-08-03T17:51:02.140Z,1.90
2022-08-03T17:53:24.545Z,2.27
2022-08-03T17:55:57.600Z,2.20
2022-08-03T17:58:03.333Z,2.10
2022-08-03T18:00:22.955Z,1.83
2022-08-03T18:02:53.261Z,2.00
2022-08-03T18:05:00.676Z,1.90
2022-08-03T18:07:11.647Z,2.03
2022-08-03T18:10:04.168Z,2.93
2022-08-03T18:11:39.120Z,1.90
2022-08-03T18:13:53.506Z,2.23
2022-08-03T18:16:02.756Z,2.20
2022-08-03T18:18:10.707Z,2.13
2022-08-03T18:20:31.048Z,2.47
2022-08-03T18:22:38.048Z,2.17
2022-08-03T18:24:45.733Z,2.13
2022-08-03T18:26:52.325Z,2.20
2022-08-03T18:28:58.605Z,2.23
2022-08-03T18:31:04.389Z,2.20
2022-08-03T18:34:19.924Z,2.70
2022-08-03T18:35:53.120Z,2.23
2022-08-03T18:38:00.971Z,2.40
2022-08-03T18:40:07.417Z,2.10
2022-08-03T18:42:19.663Z,2.47
2022-08-03T18:44:53.410Z,2.30
2022-08-03T18:46:51.713Z,2.30
2022-08-03T18:49:08.190Z,2.70
2022-08-03T18:51:24.111Z,2.83
2022-08-03T18:54:01.764Z,2.57
2022-08-03T18:56:08.638Z,2.23
2022-08-03T18:58:23.253Z,2.60
2022-08-03T19:00:42.695Z,2.97
2022-08-03T19:02:58.790Z,2.80
2022-08-03T19:05:06.409Z,2.77
2022-08-03T19:07:16.139Z,3.10
2022-08-03T19:09:23.718Z,3.00
2022-08-03T19:12:26.015Z,3.03
2022-08-03T19:14:02.134Z,2.70
2022-08-03T19:16:09.106Z,2.60
2022-08-03T19:18:18.420Z,3.00
2022-08-03T19:20:25.521Z,2.87
2022-08-03T19:22:28.690Z,2.30
2022-08-03T19:24:36.243Z,3.43
2022-08-03T19:26:41.248Z,2.73
2022-08-03T19:28:44.590Z,2.73
2022-08-03T19:30:56.839Z,2.73
2022-08-03T19:33:03.905Z,2.70
2022-08-03T19:35:13.523Z,2.30
2022-08-03T19:37:22.994Z,2.37
2022-08-03T19:39:26.930Z,2.90
2022-08-03T19:41:42.133Z,2.60
2022-08-03T19:43:53.877Z,3.20
2022-08-03T19:46:06.061Z,3.20
2022-08-03T19:48:14.562Z,2.90
2022-08-03T19:50:20.438Z,3.00
2022-08-03T19:52:24.392Z,2.87
2022-08-03T19:54:45.644Z,2.77
2022-08-03T19:56:57.156Z,2.90
2022-08-03T19:59:00.951Z,3.10
2022-08-03T20:01:21.399Z,3.00
2022-08-03T20:03:43.466Z,2.93
2022-08-03T20:05:51.799Z,3.20
2022-08-03T20:08:00.008Z,3.40
2022-08-03T20:10:05.305Z,3.07
2022-08-03T20:12:10.188Z,3.00
2022-08-03T20:14:20.933Z,3.10
2022-08-03T20:16:29.805Z,3.33
2022-08-03T20:18:39.159Z,3.30
2022-08-03T20:20:43.273Z,3.17
2022-08-03T20:22:51.312Z,3.60
2022-08-03T20:24:56.200Z,3.57
2022-08-03T20:27:01.408Z,3.07
2022-08-03T20:29:10.264Z,3.20
2022-08-03T20:31:13.702Z,3.30
2022-08-03T20:33:18.226Z,3.90
2022-08-03T20:35:23.932Z,3.70
2022-08-03T20:37:27.557Z,3.77
2022-08-03T20:39:33.957Z,3.70
2022-08-03T20:41:37.354Z,3.60
2022-08-03T20:43:41.863Z,3.50
2022-08-03T20:48:09.407Z,3.80
2022-08-03T20:50:13.029Z,3.50
2022-08-03T20:52:18.830Z,3.67
2022-08-03T20:54:29.436Z,3.30
2022-08-03T20:56:35.961Z,3.80
2022-08-03T20:58:41.648Z,3.90
2022-08-03T21:00:45.071Z,4.13
2022-08-03T21:02:48.243Z,3.47
2022-08-03T21:04:51.542Z,3.40
2022-08-03T21:07:00.624Z,3.53
2022-08-03T21:09:07.754Z,3.73
2022-08-03T21:11:13.244Z,3.43
2022-08-03T21:13:07.419Z,3.60
2022-08-03T21:16:07.145Z,4.00
2022-08-03T21:17:53.672Z,4.17
2022-08-03T21:19:58.719Z,3.80
2022-08-03T21:22:03.796Z,4.27
2022-08-03T21:24:11.789Z,4.20
2022-08-03T21:26:17.511Z,46.77
2022-08-03T21:28:27.439Z,20.50
2022-08-03T21:30:31.766Z,9.47
2022-08-03T21:32:35.105Z,4.80
2022-08-03T21:34:38.280Z,4.63
2022-08-03T21:36:41.314Z,4.10
2022-08-03T21:38:47.611Z,3.80
2022-08-03T21:41:03.144Z,4.27
2022-08-03T21:43:06.302Z,4.30
2022-08-03T21:45:16.902Z,4.07
2022-08-03T21:47:23.096Z,4.60
2022-08-03T21:50:07.872Z,4.03
2022-08-03T21:51:51.401Z,4.27
2022-08-03T21:54:02.441Z,4.03
2022-08-03T21:56:10.106Z,3.77
2022-08-03T21:58:15.349Z,3.83
2022-08-03T22:00:20.583Z,3.93
2022-08-03T22:02:31.382Z,3.57
2022-08-03T22:04:50.008Z,4.30
2022-08-03T22:06:56.345Z,4.20
2022-08-03T22:09:00.269Z,3.93
2022-08-03T22:11:04.207Z,4.03
2022-08-03T22:13:09.251Z,3.93
2022-08-03T22:15:13.749Z,3.87
2022-08-03T22:17:23.777Z,4.20
2022-08-03T22:19:40.449Z,4.70
2022-08-03T22:21:47.284Z,3.60
2022-08-03T22:23:53.925Z,4.10
2022-08-03T22:25:57.902Z,4.20
2022-08-03T22:28:02.677Z,3.67
2022-08-03T22:30:12.243Z,4.03
2022-08-03T22:32:15.479Z,3.77
2022-08-03T22:34:18.581Z,4.23
2022-08-03T22:36:29.675Z,4.30
2022-08-03T22:38:33.936Z,4.00
2022-08-03T22:40:38.624Z,4.17
2022-08-03T22:42:44.409Z,4.33
2022-08-03T22:44:50.794Z,4.20
2022-08-03T22:46:55.721Z,4.27
2022-08-03T22:48:59.018Z,5.07
2022-08-03T22:51:03.277Z,4.23
2022-08-03T22:53:07.907Z,4.27
2022-08-03T22:55:13.516Z,4.50
2022-08-03T22:57:27.982Z,4.80
2022-08-03T22:59:39.748Z,4.50
2022-08-03T23:01:45.115Z,4.50
2022-08-03T23:04:00.253Z,5.03
2022-08-03T23:06:06.767Z,5.20
2022-08-03T23:08:09.962Z,4.80
2022-08-03T23:10:14.489Z,4.40
2022-08-03T23:12:19.647Z,4.70
2022-08-03T23:14:24.464Z,5.10
2022-08-03T23:16:29.718Z,4.97
2022-08-03T23:18:37.356Z,4.93
2022-08-03T23:20:42.027Z,4.50
2022-08-03T23:22:48.454Z,4.17
2022-08-03T23:24:54.698Z,4.53
2022-08-03T23:26:58.646Z,4.30
2022-08-03T23:29:02.563Z,4.87
2022-08-03T23:31:05.685Z,4.80
2022-08-03T23:33:09.798Z,5.20
2022-08-03T23:36:29.295Z,4.83
2022-08-03T23:38:04.598Z,4.77
2022-08-03T23:40:23.188Z,4.73
2022-08-03T23:42:26.672Z,4.90
2022-08-03T23:44:31.362Z,4.87
2022-08-03T23:46:34.522Z,5.13
2022-08-03T23:48:37.636Z,4.57
2022-08-03T23:50:45.052Z,4.53
2022-08-03T23:52:57.807Z,4.93
2022-08-03T23:55:08.293Z,5.03
2022-08-03T23:57:19.017Z,4.80
2022-08-03T23:59:27.054Z,4.30
